TimePST,TemperatureF,Dew PointF,Humidity,Sea Level PressureIn,VisibilityMPH,Wind Direction,Wind SpeedMPH,Gust SpeedMPH,PrecipitationIn,Events,Conditions,WindDirDegrees,DateUTC
1:56 AM,55.0,28.9,37,30.00,10.0,West,5.8,-,N/A,,Clear,260,2013-03-05 09:56:00
2:56 AM,53.1,28.9,40,30.00,10.0,Calm,Calm,-,N/A,,Clear,0,2013-03-05 10:56:00
3:56 AM,52.0,28.9,41,30.00,10.0,West,5.8,-,N/A,,Clear,260,2013-03-05 11:56:00
4:56 AM,52.0,30.0,43,30.01,10.0,WSW,5.8,-,N/A,,Clear,250,2013-03-05 12:56:00
5:56 AM,52.0,30.9,45,30.04,10.0,South,4.6,-,N/A,,Clear,170,2013-03-05 13:56:00
6:56 AM,54.0,32.0,43,30.04,10.0,Calm,Calm,-,N/A,,Clear,0,2013-03-05 14:56:00
7:56 AM,61.0,32.0,34,30.05,10.0,NW,6.9,-,N/A,,Clear,310,2013-03-05 15:56:00
8:56 AM,62.1,30.9,31,30.06,10.0,NNW,3.5,-,N/A,,Clear,340,2013-03-05 16:56:00
9:56 AM,64.9,30.0,27,30.05,10.0,NE,5.8,-,N/A,,Clear,50,2013-03-05 17:56:00
10:56 AM,66.9,30.0,25,30.04,10.0,Variable,4.6,-,N/A,,Clear,0,2013-03-05 18:56:00
11:56 AM,69.1,30.9,24,30.01,10.0,Calm,Calm,-,N/A,,Clear,0,2013-03-05 19:56:00
12:56 PM,73.0,32.0,22,29.96,10.0,ENE,5.8,-,N/A,,Clear,70,2013-03-05 20:56:00
1:56 PM,77.0,33.1,20,29.93,10.0,SE,5.8,-,N/A,,Clear,130,2013-03-05 21:56:00
2:56 PM,78.1,34.0,20,29.91,10.0,South,12.7,17.3,N/A,,Clear,190,2013-03-05 22:56:00
3:56 PM,78.1,35.1,21,29.89,10.0,SSW,11.5,-,N/A,,Clear,200,2013-03-05 23:56:00
4:56 PM,77.0,35.1,22,29.87,10.0,SSW,8.1,-,N/A,,Clear,200,2013-03-06 00:56:00
5:56 PM,73.9,36.0,25,29.88,10.0,South,6.9,-,N/A,,Clear,190,2013-03-06 01:56:00
6:56 PM,71.1,35.1,27,29.89,10.0,SW,8.1,-,N/A,,Clear,220,2013-03-06 02:56:00
7:56 PM,68.0,36.0,31,29.88,10.0,SSW,6.9,-,N/A,,Clear,210,2013-03-06 03:56:00
8:56 PM,66.9,36.0,32,29.88,10.0,SW,9.2,-,N/A,,Clear,220,2013-03-06 04:56:00
9:56 PM,66.9,36.0,32,29.88,10.0,SSW,8.1,-,N/A,,Clear,200,2013-03-06 05:56:00
10:56 PM,61.0,37.0,41,29.88,10.0,Calm,Calm,-,N/A,,Clear,0,2013-03-06 06:56:00
11:56 PM,63.0,35.1,35,29.88,10.0,WSW,10.4,-,N/A,,Clear,250,2013-03-06 07:56:00